createdAt,value
2022-11-21T00:07:16.218Z,76224.13
2022-11-21T00:17:21.691Z,76232.22
2022-11-21T00:27:26.266Z,76232.22
2022-11-21T00:37:34.874Z,76220.06
2022-11-21T00:47:39.448Z,76187.69
2022-11-21T00:57:43.743Z,76185.66
2022-11-21T01:07:45.723Z,76163.41
2022-11-21T01:17:50.008Z,76124.94
2022-11-21T01:27:52.029Z,76126.97
2022-11-21T01:37:55.953Z,76139.09
2022-11-21T01:47:58.024Z,76167.44
2022-11-21T01:58:05.280Z,76183.63
2022-11-21T02:08:14.872Z,76175.53
2022-11-21T02:18:18.958Z,76167.44
2022-11-21T02:28:24.867Z,76177.56
2022-11-21T02:38:37.987Z,76185.66
2022-11-21T02:48:42.702Z,76203.88
2022-11-21T02:58:44.818Z,76220.06
2022-11-21T03:08:48.652Z,76236.25
2022-11-21T03:18:52.128Z,76240.31
2022-11-21T03:28:58.536Z,76260.56
2022-11-21T03:39:01.448Z,76270.66
2022-11-21T03:49:06.651Z,76272.69
2022-11-21T03:59:08.720Z,76286.88
2022-11-21T04:09:11.254Z,76268.66
2022-11-21T04:19:17.883Z,76272.69
2022-11-21T04:29:19.910Z,76264.59
2022-11-21T04:39:26.354Z,76268.66
2022-11-21T04:49:30.947Z,76254.47
2022-11-21T04:59:33.028Z,76272.69
2022-11-21T05:09:35.045Z,76280.78
2022-11-21T05:19:40.777Z,76278.78
2022-11-21T05:29:45.246Z,76284.84
2022-11-21T05:39:49.573Z,76309.13
2022-11-21T05:49:51.622Z,76329.38
2022-11-21T05:59:55.706Z,76339.50
2022-11-21T06:09:57.716Z,76335.44
2022-11-21T06:20:02.654Z,76341.50
2022-11-21T06:30:05.225Z,76341.50
2022-11-21T06:40:12.506Z,76347.59
2022-11-21T06:50:14.526Z,76301.03
2022-11-21T07:00:19.884Z,76228.16
2022-11-21T07:10:31.016Z,76163.41
2022-11-21T07:20:39.524Z,76060.19
2022-11-21T07:30:42.400Z,75963.03
2022-11-21T07:40:45.043Z,75946.84
2022-11-21T07:50:49.255Z,75944.81
2022-11-21T08:00:55.865Z,75963.03
2022-11-21T08:11:06.730Z,75993.38
2022-11-21T08:21:17.138Z,76029.81
2022-11-21T08:31:24.819Z,76007.56
2022-11-21T08:41:48.485Z,75940.75
2022-11-21T08:51:52.821Z,75924.56
2022-11-21T09:01:57.653Z,75948.84
2022-11-21T09:12:03.162Z,75886.13
2022-11-21T09:22:05.229Z,75857.78
2022-11-21T09:32:10.160Z,75839.56
2022-11-21T09:42:37.115Z,75835.53
2022-11-21T09:52:49.460Z,75839.56
2022-11-21T10:03:01.885Z,75847.66
2022-11-21T10:13:36.407Z,75851.72
2022-11-21T10:23:49.578Z,75835.53
2022-11-21T10:33:52.271Z,75817.31
2022-11-21T10:44:20.788Z,75799.09
2022-11-21T10:54:34.529Z,75762.66
2022-11-21T11:04:47.520Z,75738.38
2022-11-21T11:14:56.799Z,75712.06
2022-11-21T11:25:01.324Z,75689.81
2022-11-21T11:35:22.849Z,75645.28
2022-11-21T11:45:50.566Z,75614.94
2022-11-21T11:56:13.785Z,75580.53
2022-11-21T12:06:43.524Z,75544.09
2022-11-21T12:16:52.361Z,75527.91
2022-11-21T12:27:00.280Z,75485.41
2022-11-21T12:37:16.481Z,75483.38
2022-11-21T12:48:28.473Z,75475.28
2022-11-21T12:58:40.107Z,75493.50
2022-11-21T13:08:43.175Z,75495.53
2022-11-21T13:18:48.398Z,75491.47
2022-11-21T13:29:12.038Z,75487.44
2022-11-21T13:39:16.997Z,75493.50
2022-11-21T13:49:23.306Z,75481.34
2022-11-21T13:59:31.125Z,75479.34
2022-11-21T14:09:39.704Z,75491.47
2022-11-21T14:19:46.681Z,75501.59
2022-11-21T14:29:48.715Z,75501.59
2022-11-21T14:39:57.386Z,75540.03
2022-11-21T14:50:21.275Z,75566.34
2022-11-21T15:10:50.841Z,75578.50
2022-11-21T15:20:56.178Z,75602.78
2022-11-21T15:31:24.550Z,75629.09
2022-11-21T15:41:38.435Z,75643.25
2022-11-21T15:57:15.121Z,75665.53
2022-11-21T16:02:13.860Z,75671.59
2022-11-21T16:12:20.698Z,75673.63
2022-11-21T16:22:22.731Z,75667.53
2022-11-21T16:32:26.286Z,75691.81
2022-11-21T16:42:30.527Z,75685.75
2022-11-21T16:52:35.892Z,75685.75
2022-11-21T17:02:40.039Z,75673.63
2022-11-21T17:12:43.300Z,75673.63
2022-11-21T17:22:45.285Z,75673.63
2022-11-21T17:32:47.290Z,75653.38
2022-11-21T17:42:53.342Z,75635.16
2022-11-21T17:52:55.282Z,75621.00
2022-11-21T18:03:02.868Z,75625.03
2022-11-21T18:13:04.882Z,75600.75
2022-11-21T18:23:10.908Z,75600.75
2022-11-21T18:33:17.517Z,75592.66
2022-11-21T18:43:20.920Z,75580.53
2022-11-21T18:53:26.320Z,75572.44
2022-11-21T19:03:31.015Z,75548.13
2022-11-21T19:13:35.547Z,75554.22
2022-11-21T19:23:40.649Z,75536.00
2022-11-21T19:33:43.169Z,75552.19
2022-11-21T19:43:51.462Z,75548.13
2022-11-21T19:53:55.631Z,75564.34
2022-11-21T20:04:02.185Z,75556.25
2022-11-21T20:14:04.530Z,75568.38
2022-11-21T20:24:07.275Z,75574.44
2022-11-21T20:34:13.348Z,75592.66
2022-11-21T20:45:20.396Z,75586.59
2022-11-21T20:54:43.595Z,75564.34
2022-11-21T21:04:50.615Z,75576.47
2022-11-21T21:14:52.639Z,75600.75
2022-11-21T21:24:54.651Z,75610.88
2022-11-21T21:34:56.988Z,75612.91
2022-11-21T21:45:02.714Z,75618.97
2022-11-21T21:55:07.818Z,75616.94
2022-11-21T22:05:12.228Z,75600.75
2022-11-21T22:15:17.186Z,75608.84
2022-11-21T22:25:21.777Z,75612.91
2022-11-21T22:35:24.087Z,75614.94
2022-11-21T22:45:28.809Z,75612.91
2022-11-21T22:55:30.834Z,75608.84
2022-11-21T23:05:32.848Z,75612.91
2022-11-21T23:15:34.889Z,75616.94
2022-11-21T23:25:39.996Z,75612.91
2022-11-21T23:35:45.437Z,75614.94
2022-11-21T23:45:55.271Z,75616.94
2022-11-21T23:55:57.246Z,75627.06
